Time;durP1;ratioP1;P1;durP2;ratioP2;P2;SDS_P1;SDS_P2;PMS_P1;PMS_P2;Temp;Humidity;BMP_temperature;BMP_pressure;BME280_temperature;BME280_humidity;BME280_pressure;Samples;Min_cycle;Max_cycle;Signal;HPM_P1;HPM_P2
2022/04/16 00:00:50;;;;;;;18.75;10.82;;;;;;;;;;4953059;28;92484;-67
2022/04/16 00:03:17;;;;;;;17.60;11.25;;;;;;;;;;4952983;28;93532;-67
2022/04/16 00:05:44;;;;;;;19.23;11.43;;;;;;;;;;4952291;28;94573;-67
2022/04/16 00:08:10;;;;;;;16.10;10.90;;;;;;;;;;4955689;28;92545;-67
2022/04/16 00:10:37;;;;;;;16.05;11.02;;;;;;;;;;4953637;28;93058;-67
2022/04/16 00:13:04;;;;;;;17.80;11.48;;;;;;;;;;4953794;28;92513;-67
2022/04/16 00:15:31;;;;;;;16.42;10.93;;;;;;;;;;4952826;28;93376;-67
2022/04/16 00:17:57;;;;;;;15.05;11.02;;;;;;;;;;4950825;28;95995;-67
2022/04/16 00:20:26;;;;;;;24.20;11.82;;;;;;;;;;4950636;28;92530;-67
2022/04/16 00:22:53;;;;;;;19.80;11.63;;;;;;;;;;4952951;28;93243;-66
2022/04/16 00:25:19;;;;;;;16.70;12.05;;;;;;;;;;4952840;28;93256;-67
2022/04/16 00:27:47;;;;;;;16.15;11.25;;;;;;;;;;4952951;28;92836;-67
2022/04/16 00:30:13;;;;;;;16.77;11.18;;;;;;;;;;4955162;28;93339;-67
2022/04/16 00:32:40;;;;;;;17.52;11.35;;;;;;;;;;4952622;28;92545;-67
2022/04/16 00:35:09;;;;;;;13.95;12.23;;;;;;;;;;4953114;28;92991;-67
2022/04/16 00:37:36;;;;;;;14.98;10.93;;;;;;;;;;4953701;28;94469;-67
2022/04/16 00:40:03;;;;;;;16.35;10.43;;;;;;;;;;4955410;28;92412;-67
2022/04/16 00:42:37;;;;;;;14.73;11.68;;;;;;;;;;4950489;28;95178;-67
2022/04/16 00:45:03;;;;;;;14.88;11.60;;;;;;;;;;4956065;28;94401;-67
2022/04/16 00:47:29;;;;;;;16.88;11.80;;;;;;;;;;4956236;28;93076;-67
2022/04/16 00:49:56;;;;;;;14.13;10.73;;;;;;;;;;4955009;28;92971;-67
2022/04/16 00:52:22;;;;;;;16.40;11.95;;;;;;;;;;4958645;28;94283;-67
2022/04/16 00:54:49;;;;;;;14.45;11.45;;;;;;;;;;4955103;28;93164;-67
2022/04/16 00:57:17;;;;;;;17.10;11.65;;;;;;;;;;4955101;28;94376;-67
2022/04/16 00:59:43;;;;;;;13.35;11.55;;;;;;;;;;4956223;28;91755;-67
2022/04/16 01:02:10;;;;;;;15.93;11.43;;;;;;;;;;4966490;28;92689;-67
2022/04/16 01:04:36;;;;;;;16.95;12.15;;;;;;;;;;4955888;28;93214;-67
2022/04/16 01:07:03;;;;;;;17.85;12.23;;;;;;;;;;4953596;28;94850;-67
2022/04/16 01:09:29;;;;;;;14.85;11.60;;;;;;;;;;4954533;28;96017;-67
2022/04/16 01:11:56;;;;;;;16.65;12.35;;;;;;;;;;4956091;28;94545;-67
2022/04/16 01:14:22;;;;;;;13.30;11.40;;;;;;;;;;4958168;28;92547;-67
2022/04/16 01:16:48;;;;;;;17.45;11.38;;;;;;;;;;4954382;28;93514;-67
2022/04/16 01:19:15;;;;;;;19.02;11.82;;;;;;;;;;4955557;28;92496;-67
2022/04/16 01:21:41;;;;;;;19.98;12.13;;;;;;;;;;4954845;28;93066;-67
2022/04/16 01:24:09;;;;;;;20.65;12.73;;;;;;;;;;4955335;28;92507;-67
2022/04/16 01:26:35;;;;;;;15.00;11.25;;;;;;;;;;4955351;28;92964;-67
2022/04/16 01:29:02;;;;;;;15.48;11.95;;;;;;;;;;4955131;28;94222;-67
2022/04/16 01:31:30;;;;;;;14.93;12.20;;;;;;;;;;4953397;28;96038;-67
2022/04/16 01:33:57;;;;;;;15.80;11.85;;;;;;;;;;4955178;28;92514;-67
2022/04/16 01:36:25;;;;;;;22.50;12.43;;;;;;;;;;4957772;28;93169;-67
2022/04/16 01:38:51;;;;;;;18.30;12.15;;;;;;;;;;4954737;28;92463;-68
2022/04/16 01:41:17;;;;;;;17.92;12.23;;;;;;;;;;4955326;28;94291;-67
2022/04/16 01:43:44;;;;;;;16.75;12.32;;;;;;;;;;4954797;28;93434;-68
2022/04/16 01:46:10;;;;;;;17.15;12.73;;;;;;;;;;4955448;28;92447;-67
2022/04/16 01:48:36;;;;;;;18.55;12.63;;;;;;;;;;4954933;28;93164;-68
2022/04/16 01:51:02;;;;;;;16.67;12.65;;;;;;;;;;4953876;28;92581;-68
2022/04/16 01:53:29;;;;;;;18.77;12.45;;;;;;;;;;4954714;28;92625;-67
2022/04/16 01:55:55;;;;;;;18.65;13.40;;;;;;;;;;4952991;28;94838;-68
2022/04/16 01:58:21;;;;;;;17.55;12.20;;;;;;;;;;4959724;28;93330;-68
2022/04/16 02:00:48;;;;;;;16.90;12.52;;;;;;;;;;4954947;28;92509;-68
2022/04/16 02:03:15;;;;;;;16.02;12.45;;;;;;;;;;4956483;28;93400;-67
2022/04/16 02:05:41;;;;;;;16.52;12.98;;;;;;;;;;4953959;28;92455;-67
2022/04/16 02:08:08;;;;;;;21.20;13.80;;;;;;;;;;4960570;28;94421;-68
2022/04/16 02:10:34;;;;;;;18.77;12.65;;;;;;;;;;4955001;28;93245;-68
2022/04/16 02:13:00;;;;;;;18.85;13.45;;;;;;;;;;4955373;28;92117;-67
2022/04/16 02:15:27;;;;;;;16.33;12.82;;;;;;;;;;4955438;28;93187;-68
2022/04/16 02:17:54;;;;;;;19.23;13.23;;;;;;;;;;4957901;28;93438;-68
2022/04/16 02:20:22;;;;;;;17.67;13.32;;;;;;;;;;4952299;28;94756;-68
2022/04/16 02:22:48;;;;;;;22.48;14.57;;;;;;;;;;4954966;28;93644;-68
2022/04/16 02:25:15;;;;;;;18.38;13.30;;;;;;;;;;4954790;28;92543;-68
2022/04/16 02:27:41;;;;;;;17.48;13.23;;;;;;;;;;4954018;28;93047;-68
2022/04/16 02:30:08;;;;;;;15.90;12.68;;;;;;;;;;4954372;28;93496;-68
2022/04/16 02:32:35;;;;;;;17.75;13.35;;;;;;;;;;4955043;28;92751;-68
2022/04/16 02:35:02;;;;;;;21.67;13.18;;;;;;;;;;4953601;28;93360;-68
2022/04/16 02:37:28;;;;;;;18.75;12.77;;;;;;;;;;4955050;28;92324;-67
2022/04/16 02:39:54;;;;;;;22.92;13.30;;;;;;;;;;4957456;28;92453;-67
2022/04/16 02:42:21;;;;;;;21.05;13.85;;;;;;;;;;4951684;28;93619;-68
2022/04/16 02:47:32;;;;;;;19.85;13.10;;;;;;;;;;4954742;28;96664;-68
2022/04/16 02:49:58;;;;;;;20.00;14.63;;;;;;;;;;4953653;28;93316;-67
2022/04/16 02:52:25;;;;;;;22.50;14.18;;;;;;;;;;4967939;28;92518;-68
2022/04/16 02:54:54;;;;;;;20.75;13.88;;;;;;;;;;4954269;28;95751;-68
2022/04/16 02:57:21;;;;;;;17.80;13.48;;;;;;;;;;4954429;28;94577;-68
2022/04/16 02:59:47;;;;;;;21.08;13.45;;;;;;;;;;4953659;28;92587;-67
2022/04/16 03:02:13;;;;;;;19.58;14.50;;;;;;;;;;4956022;28;92985;-68
2022/04/16 03:04:39;;;;;;;22.45;13.85;;;;;;;;;;4953186;28;92526;-68
2022/04/16 03:07:06;;;;;;;18.73;13.48;;;;;;;;;;4953663;28;92968;-67
2022/04/16 03:09:32;;;;;;;21.35;14.70;;;;;;;;;;4951483;28;95831;-68
2022/04/16 03:11:58;;;;;;;21.95;14.35;;;;;;;;;;4953896;28;94007;-68
2022/04/16 03:19:55;;;;;;;19.45;14.25;;;;;;;;;;4952837;28;93874;-67
2022/04/16 03:22:21;;;;;;;26.05;14.00;;;;;;;;;;4953667;28;93055;-67
2022/04/16 03:24:48;;;;;;;19.60;13.70;;;;;;;;;;4956936;28;92566;-68
2022/04/16 03:27:16;;;;;;;20.75;14.57;;;;;;;;;;4954566;28;92389;-68
2022/04/16 03:29:42;;;;;;;21.13;14.65;;;;;;;;;;4953593;28;93493;-68
2022/04/16 03:32:08;;;;;;;19.70;14.15;;;;;;;;;;4952905;28;94095;-68
2022/04/16 03:34:37;;;;;;;19.52;14.55;;;;;;;;;;4951459;28;94851;-67
2022/04/16 03:37:04;;;;;;;24.25;14.55;;;;;;;;;;4953305;28;93011;-67
2022/04/16 03:39:30;;;;;;;19.88;14.63;;;;;;;;;;4952700;28;92618;-67
2022/04/16 03:41:56;;;;;;;24.83;15.77;;;;;;;;;;4953269;28;94291;-68
2022/04/16 03:44:22;;;;;;;22.33;15.35;;;;;;;;;;4949123;28;94031;-67
2022/04/16 03:46:49;;;;;;;20.48;15.43;;;;;;;;;;4956515;28;92402;-67
2022/04/16 03:49:15;;;;;;;20.77;13.90;;;;;;;;;;4953172;28;93791;-67
2022/04/16 03:51:41;;;;;;;28.02;15.30;;;;;;;;;;4953929;28;91722;-68
2022/04/16 04:02:22;;;;;;;21.73;14.25;;;;;;;;;;4952286;28;96722;-67
2022/04/16 04:04:49;;;;;;;24.58;14.90;;;;;;;;;;4961532;28;92884;-68
2022/04/16 04:07:15;;;;;;;26.67;15.30;;;;;;;;;;4953432;28;92737;-68
2022/04/16 04:09:41;;;;;;;24.50;14.25;;;;;;;;;;4967717;28;93185;-68
2022/04/16 04:12:11;;;;;;;22.92;14.40;;;;;;;;;;4953615;28;92629;-67
2022/04/16 04:14:39;;;;;;;22.57;15.07;;;;;;;;;;4956284;28;93240;-67
2022/04/16 04:17:07;;;;;;;22.17;14.45;;;;;;;;;;4955910;28;93373;-68
2022/04/16 04:19:37;;;;;;;24.85;14.93;;;;;;;;;;4957310;28;92451;-68
2022/04/16 04:22:04;;;;;;;18.98;13.95;;;;;;;;;;4961518;28;94438;-68
2022/04/16 04:24:31;;;;;;;21.75;14.00;;;;;;;;;;4954672;28;95845;-68
2022/04/16 04:26:57;;;;;;;24.83;15.75;;;;;;;;;;4957001;28;92475;-67
2022/04/16 04:29:24;;;;;;;21.88;14.85;;;;;;;;;;4959140;28;92884;-67
2022/04/16 04:31:50;;;;;;;24.63;15.35;;;;;;;;;;4956353;28;92513;-67
2022/04/16 04:34:16;;;;;;;22.90;15.05;;;;;;;;;;4956279;28;94073;-67
2022/04/16 04:36:42;;;;;;;24.77;15.52;;;;;;;;;;4956292;28;93092;-67
2022/04/16 04:39:09;;;;;;;23.15;14.68;;;;;;;;;;4956153;28;92427;-68
2022/04/16 04:41:35;;;;;;;22.13;15.23;;;;;;;;;;4956866;28;93268;-67
2022/04/16 04:44:01;;;;;;;23.33;15.18;;;;;;;;;;4953659;28;93509;-67
2022/04/16 04:46:28;;;;;;;23.95;14.85;;;;;;;;;;4956205;28;94226;-68
2022/04/16 04:48:54;;;;;;;24.83;15.07;;;;;;;;;;4955113;28;94833;-67
2022/04/16 04:51:20;;;;;;;22.30;14.57;;;;;;;;;;4959197;28;94411;-68
2022/04/16 04:53:46;;;;;;;25.48;15.40;;;;;;;;;;4955303;28;94408;-68
2022/04/16 04:56:13;;;;;;;22.65;14.90;;;;;;;;;;4946888;28;93522;-67
2022/04/16 04:58:39;;;;;;;26.70;15.07;;;;;;;;;;4964725;28;92536;-68
2022/04/16 05:01:05;;;;;;;22.95;16.10;;;;;;;;;;4956283;28;94341;-68
2022/04/16 05:03:31;;;;;;;22.08;14.88;;;;;;;;;;4955352;28;93529;-67
2022/04/16 05:05:58;;;;;;;21.42;15.63;;;;;;;;;;4956882;28;91763;-67
2022/04/16 05:08:24;;;;;;;25.80;16.70;;;;;;;;;;4954230;28;93383;-68
2022/04/16 05:10:50;;;;;;;27.13;16.88;;;;;;;;;;4955484;28;93512;-67
2022/04/16 05:13:16;;;;;;;28.60;16.65;;;;;;;;;;4956879;28;94861;-67
2022/04/16 05:15:43;;;;;;;31.15;16.98;;;;;;;;;;4955549;28;93474;-67
2022/04/16 05:18:09;;;;;;;27.85;17.30;;;;;;;;;;4954937;28;92528;-67
2022/04/16 05:20:35;;;;;;;31.48;17.83;;;;;;;;;;4954644;28;94502;-67
2022/04/16 05:23:02;;;;;;;24.55;16.98;;;;;;;;;;4954436;28;93116;-67
2022/04/16 05:25:28;;;;;;;28.20;17.35;;;;;;;;;;4955595;28;92507;-67
2022/04/16 05:27:54;;;;;;;24.17;17.25;;;;;;;;;;4954598;28;95908;-68
2022/04/16 05:30:29;;;;;;;30.67;18.38;;;;;;;;;;4955776;28;92700;-67
2022/04/16 05:33:02;;;;;;;24.10;16.15;;;;;;;;;;4955403;28;92431;-67
2022/04/16 05:35:28;;;;;;;27.42;17.40;;;;;;;;;;4958380;28;94332;-68
2022/04/16 05:37:54;;;;;;;36.28;17.95;;;;;;;;;;4952434;28;94859;-67
2022/04/16 05:40:26;;;;;;;27.10;17.70;;;;;;;;;;4953490;28;96471;-67
2022/04/16 05:42:52;;;;;;;29.38;18.75;;;;;;;;;;4953919;28;92541;-68
2022/04/16 05:45:19;;;;;;;25.27;17.30;;;;;;;;;;4954416;28;92691;-67
2022/04/16 05:47:45;;;;;;;34.13;18.90;;;;;;;;;;4954696;28;93067;-68
2022/04/16 05:50:12;;;;;;;34.30;19.92;;;;;;;;;;4955093;28;94490;-68
2022/04/16 05:52:38;;;;;;;34.05;19.52;;;;;;;;;;4955092;28;92548;-75
2022/04/16 05:55:05;;;;;;;31.42;19.70;;;;;;;;;;4954682;28;93513;-72
2022/04/16 05:57:32;;;;;;;37.20;21.10;;;;;;;;;;4960047;28;94481;-69
2022/04/16 05:59:58;;;;;;;32.53;20.25;;;;;;;;;;4940083;28;93020;-67
2022/04/16 06:02:25;;;;;;;38.20;20.85;;;;;;;;;;4952942;28;95843;-68
2022/04/16 06:04:51;;;;;;;28.85;20.42;;;;;;;;;;4954986;28;92510;-68
2022/04/16 06:07:17;;;;;;;31.85;21.83;;;;;;;;;;4954469;28;94276;-68
2022/04/16 06:09:43;;;;;;;36.25;21.02;;;;;;;;;;4954444;28;93797;-67
2022/04/16 06:12:10;;;;;;;32.90;20.80;;;;;;;;;;4954430;28;93242;-68
2022/04/16 06:14:36;;;;;;;31.15;21.60;;;;;;;;;;4955085;28;94210;-68
2022/04/16 06:17:02;;;;;;;36.92;22.27;;;;;;;;;;4955597;28;93499;-68
2022/04/16 06:19:29;;;;;;;36.33;22.10;;;;;;;;;;4958184;28;91710;-68
2022/04/16 06:21:55;;;;;;;35.80;23.25;;;;;;;;;;4954515;28;93499;-67
2022/04/16 06:24:22;;;;;;;35.38;22.70;;;;;;;;;;4954868;28;92427;-68
2022/04/16 06:26:48;;;;;;;34.50;22.88;;;;;;;;;;4953678;28;94898;-69
2022/04/16 06:29:15;;;;;;;35.13;23.08;;;;;;;;;;4954475;28;93432;-68
2022/04/16 06:31:42;;;;;;;36.78;22.95;;;;;;;;;;4954462;28;92483;-68
2022/04/16 06:34:09;;;;;;;40.88;26.17;;;;;;;;;;4953563;28;93824;-68
2022/04/16 06:36:37;;;;;;;38.53;25.83;;;;;;;;;;4952342;28;94459;-68
2022/04/16 06:39:03;;;;;;;45.58;26.75;;;;;;;;;;4957508;28;92367;-69
2022/04/16 06:41:31;;;;;;;40.95;26.23;;;;;;;;;;4954174;28;93444;-68
2022/04/16 06:43:58;;;;;;;40.90;27.05;;;;;;;;;;4954639;28;91763;-67
2022/04/16 06:46:24;;;;;;;42.42;26.70;;;;;;;;;;4950806;28;93021;-65
2022/04/16 06:48:50;;;;;;;49.67;27.63;;;;;;;;;;4954035;28;94360;-69
2022/04/16 06:51:17;;;;;;;44.22;26.85;;;;;;;;;;4951580;28;94940;-68
2022/04/16 06:53:43;;;;;;;41.28;27.88;;;;;;;;;;4953979;28;95589;-68
2022/04/16 06:56:09;;;;;;;42.15;27.00;;;;;;;;;;4939360;28;93524;-68
2022/04/16 06:58:35;;;;;;;42.58;26.83;;;;;;;;;;4942372;28;92403;-68
2022/04/16 07:01:02;;;;;;;39.80;27.23;;;;;;;;;;4956322;28;93332;-67
2022/04/16 07:03:28;;;;;;;44.25;26.90;;;;;;;;;;4953826;28;92741;-68
2022/04/16 07:05:54;;;;;;;45.97;27.73;;;;;;;;;;4952935;28;94298;-68
2022/04/16 07:08:20;;;;;;;38.03;26.13;;;;;;;;;;4954050;28;93389;-67
2022/04/16 07:10:51;;;;;;;40.55;26.27;;;;;;;;;;4953444;28;92648;-69
2022/04/16 07:13:17;;;;;;;40.78;25.00;;;;;;;;;;4954188;28;94302;-68
2022/04/16 07:15:44;;;;;;;35.42;25.55;;;;;;;;;;4952383;28;96693;-68
2022/04/16 07:18:11;;;;;;;38.22;25.63;;;;;;;;;;4954016;28;92554;-67
2022/04/16 07:20:37;;;;;;;36.47;25.25;;;;;;;;;;4952409;28;93559;-67
2022/04/16 07:23:04;;;;;;;33.83;23.90;;;;;;;;;;4955345;28;93296;-67
2022/04/16 07:25:30;;;;;;;33.67;22.85;;;;;;;;;;4952785;28;92990;-68
2022/04/16 07:27:57;;;;;;;32.97;22.92;;;;;;;;;;4953095;28;93394;-67
2022/04/16 07:30:23;;;;;;;32.17;22.80;;;;;;;;;;4952702;28;92543;-67
2022/04/16 07:32:50;;;;;;;31.95;21.75;;;;;;;;;;4953607;28;93007;-67
2022/04/16 07:35:16;;;;;;;30.83;21.13;;;;;;;;;;4953353;28;93275;-68
2022/04/16 07:37:42;;;;;;;37.35;22.40;;;;;;;;;;4953718;28;92438;-68
2022/04/16 07:40:09;;;;;;;31.52;21.25;;;;;;;;;;4951660;28;94852;-69
2022/04/16 07:42:35;;;;;;;30.48;20.45;;;;;;;;;;4952583;28;93514;-68
2022/04/16 07:45:02;;;;;;;28.40;19.77;;;;;;;;;;4956229;28;92775;-68
2022/04/16 07:47:28;;;;;;;27.77;20.02;;;;;;;;;;4954234;28;94282;-68
2022/04/16 07:49:54;;;;;;;26.65;18.90;;;;;;;;;;4956845;28;92438;-68
2022/04/16 07:52:22;;;;;;;26.85;18.92;;;;;;;;;;4956990;28;94305;-68
2022/04/16 07:54:48;;;;;;;31.67;19.48;;;;;;;;;;4955867;28;93277;-68
2022/04/16 07:57:15;;;;;;;29.40;18.50;;;;;;;;;;4952892;28;91811;-68
2022/04/16 07:59:41;;;;;;;28.13;19.08;;;;;;;;;;4950525;28;94136;-67
2022/04/16 08:02:08;;;;;;;26.45;18.10;;;;;;;;;;4951365;28;93537;-68
2022/04/16 08:04:34;;;;;;;25.02;18.02;;;;;;;;;;4950976;28;96911;-69
2022/04/16 08:07:00;;;;;;;27.08;18.30;;;;;;;;;;4957413;28;95611;-68
2022/04/16 08:09:27;;;;;;;24.35;16.92;;;;;;;;;;4956441;28;92559;-68
2022/04/16 08:11:53;;;;;;;26.65;17.77;;;;;;;;;;4956144;28;93276;-68
2022/04/16 08:14:20;;;;;;;29.33;17.20;;;;;;;;;;4955041;28;94479;-68
2022/04/16 08:16:47;;;;;;;26.40;17.65;;;;;;;;;;4955514;28;93094;-69
2022/04/16 08:19:13;;;;;;;23.13;16.83;;;;;;;;;;4956579;28;93331;-68
2022/04/16 08:21:40;;;;;;;28.92;18.02;;;;;;;;;;4956844;28;94075;-68
2022/04/16 08:26:51;;;;;;;24.85;15.95;;;;;;;;;;4956157;28;93229;-67
2022/04/16 08:29:18;;;;;;;22.35;16.10;;;;;;;;;;4947187;28;94796;-67
2022/04/16 08:31:44;;;;;;;24.92;16.60;;;;;;;;;;4956194;28;95773;-67
2022/04/16 08:34:30;;;;;;;22.20;15.63;;;;;;;;;;4950762;28;93248;-67
2022/04/16 08:36:56;;;;;;;23.77;15.68;;;;;;;;;;4951817;28;92626;-68
2022/04/16 08:39:23;;;;;;;23.35;15.57;;;;;;;;;;4956553;28;93253;-67
2022/04/16 08:41:49;;;;;;;25.23;16.10;;;;;;;;;;4955117;28;93412;-68
2022/04/16 08:44:19;;;;;;;22.15;14.80;;;;;;;;;;4955631;28;92488;-67
2022/04/16 08:46:45;;;;;;;23.58;14.55;;;;;;;;;;4956774;28;93426;-68
2022/04/16 08:49:13;;;;;;;22.40;15.20;;;;;;;;;;4959606;28;96097;-68
2022/04/16 08:51:40;;;;;;;26.27;14.77;;;;;;;;;;4953469;28;93108;-67
2022/04/16 08:54:06;;;;;;;20.65;14.65;;;;;;;;;;4948354;28;96851;-67
2022/04/16 08:56:32;;;;;;;18.80;13.70;;;;;;;;;;4955538;28;92526;-67
2022/04/16 08:58:59;;;;;;;20.55;14.07;;;;;;;;;;4955724;28;94116;-67
2022/04/16 09:01:25;;;;;;;17.08;13.23;;;;;;;;;;4952735;28;93490;-67
2022/04/16 09:03:55;;;;;;;26.77;13.05;;;;;;;;;;4954042;28;92750;-67
2022/04/16 09:06:23;;;;;;;21.95;12.43;;;;;;;;;;4955349;28;93061;-67
2022/04/16 09:08:49;;;;;;;20.48;12.55;;;;;;;;;;4953468;28;93150;-68
2022/04/16 09:11:19;;;;;;;16.33;11.60;;;;;;;;;;4955485;28;92673;-67
2022/04/16 09:13:49;;;;;;;17.77;11.02;;;;;;;;;;4947306;28;93366;-67
2022/04/16 09:16:15;;;;;;;16.50;11.07;;;;;;;;;;4954645;28;93736;-67
2022/04/16 09:18:45;;;;;;;16.60;11.82;;;;;;;;;;4943451;28;94857;-67
2022/04/16 09:21:13;;;;;;;15.02;10.95;;;;;;;;;;4952235;28;93367;-67
2022/04/16 09:23:50;;;;;;;22.75;11.57;;;;;;;;;;4955236;28;92838;-67
2022/04/16 09:26:36;;;;;;;15.23;11.32;;;;;;;;;;4949158;28;92880;-68
2022/04/16 09:29:09;;;;;;;12.82;9.50;;;;;;;;;;4952068;28;93595;-67
2022/04/16 09:31:38;;;;;;;11.60;8.85;;;;;;;;;;4952824;28;92497;-67
2022/04/16 09:34:05;;;;;;;12.68;8.15;;;;;;;;;;4958558;28;93261;-68
2022/04/16 09:36:36;;;;;;;12.02;8.02;;;;;;;;;;4956953;28;91769;-68
2022/04/16 09:39:06;;;;;;;13.13;7.20;;;;;;;;;;4955670;28;92618;-68
2022/04/16 09:41:36;;;;;;;19.80;7.47;;;;;;;;;;4953979;28;93232;-67
2022/04/16 09:44:03;;;;;;;6.75;5.57;;;;;;;;;;4953989;28;95029;-67
2022/04/16 09:46:30;;;;;;;11.68;6.65;;;;;;;;;;4954488;28;95585;-68
2022/04/16 09:49:01;;;;;;;11.82;7.70;;;;;;;;;;4955078;28;93841;-67
2022/04/16 09:51:30;;;;;;;10.38;6.10;;;;;;;;;;4954530;28;92804;-67
2022/04/16 09:53:56;;;;;;;9.95;7.25;;;;;;;;;;4955423;28;94013;-67
2022/04/16 09:56:27;;;;;;;8.98;6.63;;;;;;;;;;4958262;28;94514;-67
2022/04/16 09:58:55;;;;;;;15.18;6.53;;;;;;;;;;4955906;28;92963;-68
2022/04/16 10:01:22;;;;;;;15.70;5.63;;;;;;;;;;4956508;28;93751;-68
2022/04/16 10:03:49;;;;;;;9.23;5.53;;;;;;;;;;4955917;28;92526;-68
2022/04/16 10:06:16;;;;;;;5.07;4.55;;;;;;;;;;4956358;28;94232;-68
2022/04/16 10:08:42;;;;;;;6.63;4.93;;;;;;;;;;4953439;28;96282;-68
2022/04/16 10:11:19;;;;;;;7.22;5.63;;;;;;;;;;4954554;28;92464;-67
2022/04/16 10:13:52;;;;;;;6.40;5.50;;;;;;;;;;4955417;28;93065;-68
2022/04/16 10:16:21;;;;;;;5.05;4.53;;;;;;;;;;4956247;28;93419;-68
2022/04/16 10:18:49;;;;;;;7.10;5.13;;;;;;;;;;4958806;28;92462;-69
2022/04/16 10:21:16;;;;;;;7.13;4.82;;;;;;;;;;4955546;28;93232;-68
2022/04/16 10:23:44;;;;;;;5.63;5.00;;;;;;;;;;4952923;28;94142;-67
2022/04/16 10:26:11;;;;;;;6.25;4.80;;;;;;;;;;4956191;28;91649;-68
2022/04/16 10:28:43;;;;;;;7.00;5.82;;;;;;;;;;4955836;28;94523;-68
2022/04/16 10:31:29;;;;;;;15.73;5.07;;;;;;;;;;4954316;28;92577;-67
2022/04/16 10:33:56;;;;;;;6.35;5.40;;;;;;;;;;4954046;28;94811;-67
2022/04/16 10:36:26;;;;;;;7.75;5.57;;;;;;;;;;4953396;28;93080;-67
2022/04/16 10:38:52;;;;;;;8.27;5.53;;;;;;;;;;4956556;28;93809;-69
2022/04/16 10:41:25;;;;;;;8.45;5.65;;;;;;;;;;4949863;28;93626;-69
2022/04/16 10:43:54;;;;;;;5.15;4.60;;;;;;;;;;4951835;28;92655;-67
2022/04/16 10:46:21;;;;;;;5.82;4.78;;;;;;;;;;4951429;28;93292;-67
2022/04/16 10:48:48;;;;;;;7.30;4.63;;;;;;;;;;4953037;28;93242;-67
2022/04/16 10:51:17;;;;;;;6.93;4.40;;;;;;;;;;4956081;28;92059;-67
2022/04/16 10:53:43;;;;;;;5.85;4.47;;;;;;;;;;4955189;28;92513;-68
2022/04/16 10:56:10;;;;;;;5.38;4.78;;;;;;;;;;4954959;28;94547;-69
2022/04/16 10:58:38;;;;;;;7.15;5.05;;;;;;;;;;4952218;28;95197;-69
2022/04/16 11:01:11;;;;;;;6.72;4.88;;;;;;;;;;4957629;28;96725;-68
2022/04/16 11:04:04;;;;;;;6.88;5.50;;;;;;;;;;4954054;28;92578;-67
2022/04/16 11:06:34;;;;;;;5.50;4.50;;;;;;;;;;4951761;28;93158;-69
2022/04/16 11:09:00;;;;;;;5.95;5.35;;;;;;;;;;4954807;28;94315;-69
2022/04/16 11:11:27;;;;;;;5.88;5.22;;;;;;;;;;4955193;28;92406;-68
2022/04/16 11:13:53;;;;;;;5.50;4.88;;;;;;;;;;4953563;28;92894;-69
2022/04/16 11:16:22;;;;;;;6.22;5.32;;;;;;;;;;4954862;28;92806;-69
2022/04/16 11:18:49;;;;;;;5.85;5.15;;;;;;;;;;4953732;28;92544;-69
2022/04/16 11:21:18;;;;;;;12.00;5.18;;;;;;;;;;4954907;28;93166;-69
2022/04/16 11:23:44;;;;;;;6.55;5.50;;;;;;;;;;4956057;28;96006;-69
2022/04/16 11:34:30;;;;;;;7.25;5.28;;;;;;;;;;4935230;28;93128;-68
2022/04/16 11:37:16;;;;;;;11.77;5.13;;;;;;;;;;4948166;28;94843;-70
2022/04/16 11:39:43;;;;;;;6.93;5.10;;;;;;;;;;4954280;28;92535;-69
2022/04/16 11:42:10;;;;;;;7.10;4.93;;;;;;;;;;4954285;28;93690;-69
2022/04/16 11:44:45;;;;;;;5.80;5.20;;;;;;;;;;4954281;28;93570;-71
2022/04/16 11:47:12;;;;;;;6.95;5.53;;;;;;;;;;4958076;28;92519;-68
2022/04/16 11:49:43;;;;;;;6.22;5.18;;;;;;;;;;4952741;28;95718;-69
2022/04/16 11:52:10;;;;;;;7.18;5.18;;;;;;;;;;4955106;28;92452;-70
2022/04/16 11:54:37;;;;;;;8.60;4.65;;;;;;;;;;4952129;28;93089;-69
2022/04/16 11:57:03;;;;;;;10.63;5.20;;;;;;;;;;4944739;28;93458;-69
2022/04/16 11:59:30;;;;;;;5.22;4.68;;;;;;;;;;4954399;28;92496;-69
2022/04/16 12:01:59;;;;;;;6.55;5.07;;;;;;;;;;4954078;28;93228;-70
2022/04/16 12:04:33;;;;;;;5.82;4.65;;;;;;;;;;4953810;28;94635;-70
2022/04/16 12:06:59;;;;;;;5.57;5.07;;;;;;;;;;4955054;28;91748;-69
2022/04/16 12:09:25;;;;;;;6.22;4.97;;;;;;;;;;4952401;28;92468;-69
2022/04/16 12:11:54;;;;;;;6.10;5.13;;;;;;;;;;4954241;28;92364;-70
2022/04/16 12:14:23;;;;;;;5.17;4.10;;;;;;;;;;4951464;28;95046;-70
2022/04/16 12:16:59;;;;;;;28.48;6.68;;;;;;;;;;4953559;28;93136;-69
2022/04/16 12:19:34;;;;;;;4.85;4.35;;;;;;;;;;4953913;28;92462;-69
2022/04/16 12:22:01;;;;;;;5.25;3.75;;;;;;;;;;4953618;28;94093;-70
2022/04/16 12:24:28;;;;;;;6.80;3.90;;;;;;;;;;4953313;28;93273;-70
2022/04/16 12:26:55;;;;;;;4.88;3.85;;;;;;;;;;4954317;28;92884;-70
2022/04/16 12:29:29;;;;;;;3.90;3.50;;;;;;;;;;4953660;28;93266;-70
2022/04/16 12:31:56;;;;;;;5.07;3.25;;;;;;;;;;4957488;28;92397;-69
2022/04/16 12:34:22;;;;;;;4.07;3.10;;;;;;;;;;4955500;28;92426;-69
2022/04/16 12:36:49;;;;;;;3.28;2.97;;;;;;;;;;4954283;28;93396;-71
2022/04/16 12:39:15;;;;;;;4.78;3.30;;;;;;;;;;4955293;28;94892;-71
2022/04/16 12:41:42;;;;;;;5.57;2.65;;;;;;;;;;4957172;28;95603;-70
2022/04/16 12:44:08;;;;;;;3.40;3.05;;;;;;;;;;4956897;28;93347;-70
2022/04/16 12:46:34;;;;;;;7.18;2.95;;;;;;;;;;4956724;28;92558;-71
2022/04/16 12:49:00;;;;;;;4.03;2.95;;;;;;;;;;4956291;28;92786;-70
2022/04/16 12:51:27;;;;;;;4.13;2.90;;;;;;;;;;4959836;28;93331;-72
2022/04/16 12:53:53;;;;;;;3.22;2.92;;;;;;;;;;4956815;28;92986;-70
2022/04/16 12:56:19;;;;;;;2.85;2.58;;;;;;;;;;4957279;28;92732;-70
2022/04/16 12:58:46;;;;;;;3.40;3.08;;;;;;;;;;4955373;28;92506;-69
2022/04/16 13:01:14;;;;;;;6.65;2.65;;;;;;;;;;4937931;28;93101;-69
2022/04/16 13:03:41;;;;;;;3.80;2.50;;;;;;;;;;4934557;28;94788;-69
2022/04/16 13:06:08;;;;;;;3.05;2.47;;;;;;;;;;4956338;28;92566;-69
2022/04/16 13:08:34;;;;;;;5.75;3.20;;;;;;;;;;4955920;28;92957;-69
2022/04/16 13:11:04;;;;;;;3.80;2.60;;;;;;;;;;4956285;28;93441;-69
2022/04/16 13:13:38;;;;;;;2.97;2.58;;;;;;;;;;4959522;28;92559;-70
2022/04/16 13:16:04;;;;;;;3.03;2.38;;;;;;;;;;4954953;28;93390;-70
2022/04/16 13:18:31;;;;;;;5.93;2.08;;;;;;;;;;4957094;28;92466;-69
2022/04/16 13:20:57;;;;;;;3.00;2.33;;;;;;;;;;4955966;28;93173;-69
2022/04/16 13:23:24;;;;;;;5.05;2.30;;;;;;;;;;4956439;28;93999;-70
2022/04/16 13:25:51;;;;;;;7.65;2.15;;;;;;;;;;4956926;28;92399;-70
2022/04/16 13:28:17;;;;;;;2.25;2.05;;;;;;;;;;4955347;28;94857;-70
2022/04/16 13:30:43;;;;;;;5.18;2.10;;;;;;;;;;4955828;28;93514;-70
2022/04/16 13:33:10;;;;;;;3.92;1.70;;;;;;;;;;4953706;28;92642;-69
2022/04/16 13:35:36;;;;;;;2.47;1.90;;;;;;;;;;4959198;28;93342;-70
2022/04/16 13:38:02;;;;;;;2.42;1.40;;;;;;;;;;4956554;28;92504;-70
2022/04/16 13:43:13;;;;;;;1.83;1.48;;;;;;;;;;4955674;28;93520;-71
2022/04/16 13:45:40;;;;;;;4.75;2.03;;;;;;;;;;4956814;28;91628;-70
2022/04/16 13:48:06;;;;;;;4.22;2.30;;;;;;;;;;4955955;28;92475;-69
2022/04/16 13:50:32;;;;;;;2.42;2.22;;;;;;;;;;4956335;28;94470;-69
2022/04/16 13:52:58;;;;;;;4.47;1.98;;;;;;;;;;4953292;28;94955;-69
2022/04/16 13:55:25;;;;;;;4.30;2.15;;;;;;;;;;4954219;28;96574;-70
2022/04/16 13:57:51;;;;;;;3.03;2.20;;;;;;;;;;4959096;28;93468;-69
2022/04/16 14:00:17;;;;;;;4.43;1.77;;;;;;;;;;4955114;28;93003;-70
2022/04/16 14:02:44;;;;;;;2.90;2.10;;;;;;;;;;4955674;28;93921;-69
2022/04/16 14:07:55;;;;;;;6.00;1.70;;;;;;;;;;4955475;28;93252;-69
2022/04/16 14:10:21;;;;;;;2.50;1.77;;;;;;;;;;4955281;28;92331;-69
2022/04/16 14:12:48;;;;;;;4.18;1.83;;;;;;;;;;4955549;28;92515;-68
2022/04/16 14:15:14;;;;;;;6.13;2.00;;;;;;;;;;4955797;28;93259;-70
2022/04/16 14:17:40;;;;;;;3.53;2.05;;;;;;;;;;4954217;28;95906;-70
2022/04/16 14:20:08;;;;;;;4.03;2.20;;;;;;;;;;4958674;28;92532;-69
2022/04/16 14:22:34;;;;;;;2.60;2.28;;;;;;;;;;4955266;28;94312;-70
2022/04/16 14:25:01;;;;;;;4.03;2.30;;;;;;;;;;4938397;28;92418;-69
2022/04/16 14:27:27;;;;;;;6.47;2.75;;;;;;;;;;4955680;28;94474;-70
2022/04/16 14:29:53;;;;;;;3.67;2.15;;;;;;;;;;4955299;28;93602;-70
2022/04/16 14:32:19;;;;;;;7.70;2.55;;;;;;;;;;4955495;28;92528;-69
2022/04/16 14:34:46;;;;;;;2.85;2.08;;;;;;;;;;4955514;28;93508;-69
2022/04/16 14:37:12;;;;;;;3.25;2.35;;;;;;;;;;4955223;28;93647;-69
2022/04/16 14:39:38;;;;;;;2.55;1.95;;;;;;;;;;4954648;28;92889;-69
2022/04/16 14:42:06;;;;;;;5.70;1.85;;;;;;;;;;4957040;28;94862;-68
2022/04/16 14:44:34;;;;;;;9.52;2.03;;;;;;;;;;4953635;28;92545;-69
2022/04/16 14:47:00;;;;;;;1.70;1.60;;;;;;;;;;4955335;28;94332;-69
2022/04/16 14:49:27;;;;;;;2.40;1.77;;;;;;;;;;4954001;28;93513;-69
2022/04/16 14:51:57;;;;;;;3.70;1.85;;;;;;;;;;4955073;28;92541;-69
2022/04/16 14:54:23;;;;;;;4.60;1.80;;;;;;;;;;4954447;28;94108;-70
2022/04/16 14:56:50;;;;;;;5.63;1.88;;;;;;;;;;4954182;28;94615;-69
2022/04/16 14:59:16;;;;;;;5.18;2.00;;;;;;;;;;4955557;28;91743;-69